sensor_id;sensor_type;location;lat;lon;timestamp;temperature;humidity
42479;DHT22;28110;47.080;9.476;2024-03-22T00:01:56;9.20;99.90
42479;DHT22;28110;47.080;9.476;2024-03-22T00:04:22;9.20;99.90
42479;DHT22;28110;47.080;9.476;2024-03-22T00:06:49;9.20;99.90
42479;DHT22;28110;47.080;9.476;2024-03-22T00:09:16;9.10;99.90
42479;DHT22;28110;47.080;9.476;2024-03-22T00:11:43;9.10;99.90
42479;DHT22;28110;47.080;9.476;2024-03-22T00:14:10;9.10;99.90
42479;DHT22;28110;47.080;9.476;2024-03-22T00:16:35;9.10;99.90
42479;DHT22;28110;47.080;9.476;2024-03-22T00:19:01;9.00;99.90
42479;DHT22;28110;47.080;9.476;2024-03-22T00:21:27;9.00;99.90
42479;DHT22;28110;47.080;9.476;2024-03-22T00:23:53;8.90;99.90
42479;DHT22;28110;47.080;9.476;2024-03-22T00:26:19;8.90;99.90
42479;DHT22;28110;47.080;9.476;2024-03-22T00:28:44;8.90;99.90
42479;DHT22;28110;47.080;9.476;2024-03-22T00:31:10;8.90;99.90
42479;DHT22;28110;47.080;9.476;2024-03-22T00:33:35;8.90;99.90
42479;DHT22;28110;47.080;9.476;2024-03-22T00:36:01;8.90;99.90
42479;DHT22;28110;47.080;9.476;2024-03-22T00:38:27;8.80;99.90
42479;DHT22;28110;47.080;9.476;2024-03-22T00:40:53;8.80;99.90
42479;DHT22;28110;47.080;9.476;2024-03-22T00:43:20;8.80;99.90
42479;DHT22;28110;47.080;9.476;2024-03-22T00:45:46;8.70;99.90
42479;DHT22;28110;47.080;9.476;2024-03-22T00:48:11;8.70;99.90
42479;DHT22;28110;47.080;9.476;2024-03-22T00:50:37;8.60;99.90
42479;DHT22;28110;47.080;9.476;2024-03-22T00:53:02;8.60;99.90
42479;DHT22;28110;47.080;9.476;2024-03-22T00:55:29;8.60;99.90
42479;DHT22;28110;47.080;9.476;2024-03-22T00:57:54;8.60;99.90
42479;DHT22;28110;47.080;9.476;2024-03-22T01:00:20;8.60;99.90
42479;DHT22;28110;47.080;9.476;2024-03-22T01:02:46;8.60;99.90
42479;DHT22;28110;47.080;9.476;2024-03-22T01:05:11;8.70;99.90
42479;DHT22;28110;47.080;9.476;2024-03-22T01:07:37;8.80;99.90
42479;DHT22;28110;47.080;9.476;2024-03-22T01:10:04;8.90;99.90
42479;DHT22;28110;47.080;9.476;2024-03-22T01:12:30;8.90;99.90
42479;DHT22;28110;47.080;9.476;2024-03-22T01:14:56;9.00;99.90
42479;DHT22;28110;47.080;9.476;2024-03-22T01:17:22;9.00;99.90
42479;DHT22;28110;47.080;9.476;2024-03-22T01:19:48;9.00;99.90
42479;DHT22;28110;47.080;9.476;2024-03-22T01:22:13;9.20;99.90
42479;DHT22;28110;47.080;9.476;2024-03-22T01:24:39;9.30;99.90
42479;DHT22;28110;47.080;9.476;2024-03-22T01:27:05;9.30;99.90
42479;DHT22;28110;47.080;9.476;2024-03-22T01:29:30;9.30;99.90
42479;DHT22;28110;47.080;9.476;2024-03-22T01:31:58;9.30;99.90
42479;DHT22;28110;47.080;9.476;2024-03-22T01:34:23;9.30;99.90
42479;DHT22;28110;47.080;9.476;2024-03-22T01:36:51;9.30;99.90
42479;DHT22;28110;47.080;9.476;2024-03-22T01:39:16;9.40;99.90
42479;DHT22;28110;47.080;9.476;2024-03-22T01:41:43;9.40;99.90
42479;DHT22;28110;47.080;9.476;2024-03-22T01:44:09;9.40;99.90
42479;DHT22;28110;47.080;9.476;2024-03-22T01:46:35;9.40;99.90
42479;DHT22;28110;47.080;9.476;2024-03-22T01:49:01;9.50;99.90
42479;DHT22;28110;47.080;9.476;2024-03-22T01:51:26;9.50;99.90
42479;DHT22;28110;47.080;9.476;2024-03-22T01:53:53;9.60;99.90
42479;DHT22;28110;47.080;9.476;2024-03-22T01:56:20;9.60;99.90
42479;DHT22;28110;47.080;9.476;2024-03-22T01:58:46;9.50;99.90
42479;DHT22;28110;47.080;9.476;2024-03-22T02:01:12;9.50;99.90
42479;DHT22;28110;47.080;9.476;2024-03-22T02:03:37;9.50;99.90
42479;DHT22;28110;47.080;9.476;2024-03-22T02:06:03;9.50;99.90
42479;DHT22;28110;47.080;9.476;2024-03-22T02:08:28;9.50;99.90
42479;DHT22;28110;47.080;9.476;2024-03-22T02:10:54;9.50;99.90
42479;DHT22;28110;47.080;9.476;2024-03-22T02:13:20;9.50;99.90
42479;DHT22;28110;47.080;9.476;2024-03-22T02:15:45;9.50;99.90
42479;DHT22;28110;47.080;9.476;2024-03-22T02:18:11;9.50;99.90
42479;DHT22;28110;47.080;9.476;2024-03-22T02:20:36;9.40;99.90
42479;DHT22;28110;47.080;9.476;2024-03-22T02:23:02;9.50;99.90
42479;DHT22;28110;47.080;9.476;2024-03-22T02:25:27;9.40;99.90
42479;DHT22;28110;47.080;9.476;2024-03-22T02:27:53;9.40;99.90
42479;DHT22;28110;47.080;9.476;2024-03-22T02:30:18;9.40;99.90
42479;DHT22;28110;47.080;9.476;2024-03-22T02:32:44;9.40;99.90
42479;DHT22;28110;47.080;9.476;2024-03-22T02:35:10;9.50;99.90
42479;DHT22;28110;47.080;9.476;2024-03-22T02:37:35;9.60;99.90
42479;DHT22;28110;47.080;9.476;2024-03-22T02:40:01;9.70;99.90
42479;DHT22;28110;47.080;9.476;2024-03-22T02:42:26;9.80;99.90
42479;DHT22;28110;47.080;9.476;2024-03-22T02:44:52;9.80;99.90
42479;DHT22;28110;47.080;9.476;2024-03-22T02:47:18;9.80;99.90
42479;DHT22;28110;47.080;9.476;2024-03-22T02:49:43;9.80;99.90
42479;DHT22;28110;47.080;9.476;2024-03-22T02:52:09;9.70;99.90
42479;DHT22;28110;47.080;9.476;2024-03-22T02:54:34;9.70;99.90
42479;DHT22;28110;47.080;9.476;2024-03-22T02:57:00;9.60;99.90
42479;DHT22;28110;47.080;9.476;2024-03-22T02:59:27;9.50;99.90
42479;DHT22;28110;47.080;9.476;2024-03-22T03:01:53;9.40;99.90
42479;DHT22;28110;47.080;9.476;2024-03-22T03:04:19;9.40;99.90
42479;DHT22;28110;47.080;9.476;2024-03-22T03:06:44;9.40;99.90
42479;DHT22;28110;47.080;9.476;2024-03-22T03:09:13;9.30;99.90
42479;DHT22;28110;47.080;9.476;2024-03-22T03:11:39;9.30;99.90
42479;DHT22;28110;47.080;9.476;2024-03-22T03:14:05;9.20;99.90
42479;DHT22;28110;47.080;9.476;2024-03-22T03:16:30;9.20;99.90
42479;DHT22;28110;47.080;9.476;2024-03-22T03:18:56;9.20;99.90
42479;DHT22;28110;47.080;9.476;2024-03-22T03:21:21;9.30;99.90
42479;DHT22;28110;47.080;9.476;2024-03-22T03:23:47;9.30;99.90
42479;DHT22;28110;47.080;9.476;2024-03-22T03:26:12;9.40;99.90
42479;DHT22;28110;47.080;9.476;2024-03-22T03:28:38;9.40;99.90
42479;DHT22;28110;47.080;9.476;2024-03-22T03:31:04;9.50;99.90
42479;DHT22;28110;47.080;9.476;2024-03-22T03:33:30;9.50;99.90
42479;DHT22;28110;47.080;9.476;2024-03-22T03:35:55;9.50;99.90
42479;DHT22;28110;47.080;9.476;2024-03-22T03:38:21;9.50;99.90
42479;DHT22;28110;47.080;9.476;2024-03-22T03:40:47;9.50;99.90
42479;DHT22;28110;47.080;9.476;2024-03-22T03:43:12;9.50;99.90
42479;DHT22;28110;47.080;9.476;2024-03-22T03:45:38;9.50;99.90
42479;DHT22;28110;47.080;9.476;2024-03-22T03:48:03;9.50;99.90
42479;DHT22;28110;47.080;9.476;2024-03-22T03:50:29;9.50;99.90
42479;DHT22;28110;47.080;9.476;2024-03-22T03:52:55;9.50;99.90
42479;DHT22;28110;47.080;9.476;2024-03-22T03:55:22;9.50;99.90
42479;DHT22;28110;47.080;9.476;2024-03-22T03:57:50;9.50;99.90
42479;DHT22;28110;47.080;9.476;2024-03-22T04:00:15;9.60;99.90
42479;DHT22;28110;47.080;9.476;2024-03-22T04:02:41;9.70;99.90
42479;DHT22;28110;47.080;9.476;2024-03-22T04:05:07;9.70;99.90
42479;DHT22;28110;47.080;9.476;2024-03-22T04:07:32;9.70;99.90
42479;DHT22;28110;47.080;9.476;2024-03-22T04:09:58;9.70;99.90
42479;DHT22;28110;47.080;9.476;2024-03-22T04:12:26;9.60;99.90
42479;DHT22;28110;47.080;9.476;2024-03-22T04:14:52;9.50;99.90
42479;DHT22;28110;47.080;9.476;2024-03-22T04:17:17;9.50;99.90
42479;DHT22;28110;47.080;9.476;2024-03-22T04:19:43;9.50;99.90
42479;DHT22;28110;47.080;9.476;2024-03-22T04:22:08;9.60;99.90
42479;DHT22;28110;47.080;9.476;2024-03-22T04:24:34;9.60;99.90
42479;DHT22;28110;47.080;9.476;2024-03-22T04:26:59;9.60;99.90
42479;DHT22;28110;47.080;9.476;2024-03-22T04:29:25;9.70;99.90
42479;DHT22;28110;47.080;9.476;2024-03-22T04:31:50;9.70;99.90
42479;DHT22;28110;47.080;9.476;2024-03-22T04:34:16;9.80;99.90
42479;DHT22;28110;47.080;9.476;2024-03-22T04:36:42;9.60;99.90
42479;DHT22;28110;47.080;9.476;2024-03-22T04:39:07;9.50;99.90
42479;DHT22;28110;47.080;9.476;2024-03-22T04:41:35;9.50;99.90
42479;DHT22;28110;47.080;9.476;2024-03-22T04:44:00;9.40;99.90
42479;DHT22;28110;47.080;9.476;2024-03-22T04:46:26;9.30;99.90
42479;DHT22;28110;47.080;9.476;2024-03-22T04:48:51;9.30;99.90
42479;DHT22;28110;47.080;9.476;2024-03-22T04:51:17;9.40;99.90
42479;DHT22;28110;47.080;9.476;2024-03-22T04:53:42;9.40;99.90
42479;DHT22;28110;47.080;9.476;2024-03-22T04:56:09;9.40;99.90
42479;DHT22;28110;47.080;9.476;2024-03-22T04:58:35;9.50;99.90
42479;DHT22;28110;47.080;9.476;2024-03-22T05:01:01;9.50;99.90
42479;DHT22;28110;47.080;9.476;2024-03-22T05:03:26;9.50;99.90
42479;DHT22;28110;47.080;9.476;2024-03-22T05:05:52;9.50;99.90
42479;DHT22;28110;47.080;9.476;2024-03-22T05:08:17;9.50;99.90
42479;DHT22;28110;47.080;9.476;2024-03-22T05:10:43;9.60;99.90
42479;DHT22;28110;47.080;9.476;2024-03-22T05:13:09;9.60;99.90
42479;DHT22;28110;47.080;9.476;2024-03-22T05:15:34;9.60;99.90
42479;DHT22;28110;47.080;9.476;2024-03-22T05:18:00;9.60;99.90
42479;DHT22;28110;47.080;9.476;2024-03-22T05:20:26;9.60;99.90
42479;DHT22;28110;47.080;9.476;2024-03-22T05:22:52;9.60;99.90
42479;DHT22;28110;47.080;9.476;2024-03-22T05:25:18;9.50;99.90
42479;DHT22;28110;47.080;9.476;2024-03-22T05:27:44;9.50;99.90
42479;DHT22;28110;47.080;9.476;2024-03-22T05:30:11;9.50;99.90
42479;DHT22;28110;47.080;9.476;2024-03-22T05:32:37;9.40;99.90
42479;DHT22;28110;47.080;9.476;2024-03-22T05:35:02;9.40;99.90
42479;DHT22;28110;47.080;9.476;2024-03-22T05:37:28;9.30;99.90
42479;DHT22;28110;47.080;9.476;2024-03-22T05:39:54;9.20;99.90
42479;DHT22;28110;47.080;9.476;2024-03-22T05:42:20;9.30;99.90
42479;DHT22;28110;47.080;9.476;2024-03-22T05:44:45;9.20;99.90
42479;DHT22;28110;47.080;9.476;2024-03-22T05:47:11;9.30;99.90
42479;DHT22;28110;47.080;9.476;2024-03-22T05:49:37;9.40;99.90
42479;DHT22;28110;47.080;9.476;2024-03-22T05:52:02;9.50;99.90
42479;DHT22;28110;47.080;9.476;2024-03-22T05:54:28;9.50;99.90
42479;DHT22;28110;47.080;9.476;2024-03-22T05:56:54;9.50;99.90
42479;DHT22;28110;47.080;9.476;2024-03-22T05:59:20;9.50;99.90
42479;DHT22;28110;47.080;9.476;2024-03-22T06:01:45;9.60;99.90
42479;DHT22;28110;47.080;9.476;2024-03-22T06:04:11;9.70;99.90
42479;DHT22;28110;47.080;9.476;2024-03-22T06:06:36;9.70;99.90
42479;DHT22;28110;47.080;9.476;2024-03-22T06:09:03;9.70;99.90
42479;DHT22;28110;47.080;9.476;2024-03-22T06:11:32;9.70;99.90
42479;DHT22;28110;47.080;9.476;2024-03-22T06:13:57;9.70;99.90
42479;DHT22;28110;47.080;9.476;2024-03-22T06:16:23;9.80;99.90
42479;DHT22;28110;47.080;9.476;2024-03-22T06:18:48;9.80;99.90
42479;DHT22;28110;47.080;9.476;2024-03-22T06:21:14;9.80;99.90
42479;DHT22;28110;47.080;9.476;2024-03-22T06:23:40;9.80;99.90
42479;DHT22;28110;47.080;9.476;2024-03-22T06:26:06;9.80;99.90
42479;DHT22;28110;47.080;9.476;2024-03-22T06:28:32;9.80;99.90
42479;DHT22;28110;47.080;9.476;2024-03-22T06:30:58;9.70;99.90
42479;DHT22;28110;47.080;9.476;2024-03-22T06:33:23;9.70;99.90
42479;DHT22;28110;47.080;9.476;2024-03-22T06:35:49;9.70;99.90
42479;DHT22;28110;47.080;9.476;2024-03-22T06:38:14;9.70;99.90
42479;DHT22;28110;47.080;9.476;2024-03-22T06:40:40;9.70;99.90
42479;DHT22;28110;47.080;9.476;2024-03-22T06:43:06;9.70;99.90
42479;DHT22;28110;47.080;9.476;2024-03-22T06:45:31;9.80;99.90
42479;DHT22;28110;47.080;9.476;2024-03-22T06:47:57;9.90;99.90
42479;DHT22;28110;47.080;9.476;2024-03-22T06:50:22;10.00;99.90
42479;DHT22;28110;47.080;9.476;2024-03-22T06:52:53;10.10;99.90
42479;DHT22;28110;47.080;9.476;2024-03-22T06:55:21;10.10;99.90
42479;DHT22;28110;47.080;9.476;2024-03-22T06:57:48;10.10;99.90
42479;DHT22;28110;47.080;9.476;2024-03-22T07:00:14;10.10;99.90
42479;DHT22;28110;47.080;9.476;2024-03-22T07:02:40;10.10;99.90
42479;DHT22;28110;47.080;9.476;2024-03-22T07:05:09;10.20;99.90
42479;DHT22;28110;47.080;9.476;2024-03-22T07:07:35;10.10;99.90
42479;DHT22;28110;47.080;9.476;2024-03-22T07:10:02;10.20;99.90
42479;DHT22;28110;47.080;9.476;2024-03-22T07:12:28;10.20;99.90
42479;DHT22;28110;47.080;9.476;2024-03-22T07:14:54;10.10;99.90
42479;DHT22;28110;47.080;9.476;2024-03-22T07:17:20;10.20;99.90
42479;DHT22;28110;47.080;9.476;2024-03-22T07:19:50;10.30;99.90
42479;DHT22;28110;47.080;9.476;2024-03-22T07:22:17;10.40;99.90
42479;DHT22;28110;47.080;9.476;2024-03-22T07:24:42;10.60;99.90
42479;DHT22;28110;47.080;9.476;2024-03-22T07:27:08;10.70;99.90
42479;DHT22;28110;47.080;9.476;2024-03-22T07:29:33;10.90;99.90
42479;DHT22;28110;47.080;9.476;2024-03-22T07:31:59;11.00;99.90
42479;DHT22;28110;47.080;9.476;2024-03-22T07:34:24;11.00;99.90
42479;DHT22;28110;47.080;9.476;2024-03-22T07:36:50;11.10;99.90
42479;DHT22;28110;47.080;9.476;2024-03-22T07:39:15;11.10;99.90
42479;DHT22;28110;47.080;9.476;2024-03-22T07:41:41;11.30;99.90
42479;DHT22;28110;47.080;9.476;2024-03-22T07:44:07;11.40;99.90
42479;DHT22;28110;47.080;9.476;2024-03-22T07:46:33;11.50;99.90
42479;DHT22;28110;47.080;9.476;2024-03-22T07:48:58;11.60;99.90
42479;DHT22;28110;47.080;9.476;2024-03-22T07:51:25;11.70;99.90
42479;DHT22;28110;47.080;9.476;2024-03-22T07:53:50;11.80;99.90
42479;DHT22;28110;47.080;9.476;2024-03-22T07:56:17;12.00;99.90
42479;DHT22;28110;47.080;9.476;2024-03-22T07:58:42;12.10;99.90
42479;DHT22;28110;47.080;9.476;2024-03-22T08:01:08;12.10;99.90
42479;DHT22;28110;47.080;9.476;2024-03-22T08:03:34;12.20;99.90
42479;DHT22;28110;47.080;9.476;2024-03-22T08:06:00;12.10;99.90
42479;DHT22;28110;47.080;9.476;2024-03-22T08:08:25;12.30;99.90
42479;DHT22;28110;47.080;9.476;2024-03-22T08:10:51;12.30;99.90
42479;DHT22;28110;47.080;9.476;2024-03-22T08:13:16;12.40;99.90
42479;DHT22;28110;47.080;9.476;2024-03-22T08:15:42;12.60;99.90
42479;DHT22;28110;47.080;9.476;2024-03-22T08:18:09;12.80;99.90
42479;DHT22;28110;47.080;9.476;2024-03-22T08:20:34;13.00;99.90
42479;DHT22;28110;47.080;9.476;2024-03-22T08:23:00;13.10;99.90
42479;DHT22;28110;47.080;9.476;2024-03-22T08:25:26;13.30;99.90
42479;DHT22;28110;47.080;9.476;2024-03-22T08:27:51;13.40;99.90
42479;DHT22;28110;47.080;9.476;2024-03-22T08:30:20;13.40;99.90
42479;DHT22;28110;47.080;9.476;2024-03-22T08:32:46;13.50;99.90
42479;DHT22;28110;47.080;9.476;2024-03-22T08:35:12;13.50;99.90
42479;DHT22;28110;47.080;9.476;2024-03-22T08:37:37;13.60;99.90
42479;DHT22;28110;47.080;9.476;2024-03-22T08:40:03;13.60;99.90
42479;DHT22;28110;47.080;9.476;2024-03-22T08:42:30;13.70;99.90
42479;DHT22;28110;47.080;9.476;2024-03-22T08:44:55;13.80;99.90
42479;DHT22;28110;47.080;9.476;2024-03-22T08:47:21;13.80;99.90
42479;DHT22;28110;47.080;9.476;2024-03-22T08:49:46;13.90;99.90
42479;DHT22;28110;47.080;9.476;2024-03-22T08:52:12;13.90;99.90
42479;DHT22;28110;47.080;9.476;2024-03-22T08:54:37;13.90;99.90
42479;DHT22;28110;47.080;9.476;2024-03-22T08:57:03;14.00;99.90
42479;DHT22;28110;47.080;9.476;2024-03-22T08:59:28;14.00;99.90
42479;DHT22;28110;47.080;9.476;2024-03-22T09:01:54;14.20;99.90
42479;DHT22;28110;47.080;9.476;2024-03-22T09:04:19;14.30;99.90
42479;DHT22;28110;47.080;9.476;2024-03-22T09:06:45;14.30;99.90
42479;DHT22;28110;47.080;9.476;2024-03-22T09:09:11;14.50;99.90
42479;DHT22;28110;47.080;9.476;2024-03-22T09:11:37;14.50;99.90
42479;DHT22;28110;47.080;9.476;2024-03-22T09:14:02;14.50;99.90
42479;DHT22;28110;47.080;9.476;2024-03-22T09:16:29;14.60;99.90
42479;DHT22;28110;47.080;9.476;2024-03-22T09:18:54;14.60;99.90
42479;DHT22;28110;47.080;9.476;2024-03-22T09:21:20;14.80;99.90
42479;DHT22;28110;47.080;9.476;2024-03-22T09:23:46;14.90;99.90
42479;DHT22;28110;47.080;9.476;2024-03-22T09:26:11;15.00;99.90
42479;DHT22;28110;47.080;9.476;2024-03-22T09:28:37;15.10;99.90
42479;DHT22;28110;47.080;9.476;2024-03-22T09:31:04;15.10;99.90
42479;DHT22;28110;47.080;9.476;2024-03-22T09:33:32;15.20;99.90
42479;DHT22;28110;47.080;9.476;2024-03-22T09:35:57;15.20;99.90
42479;DHT22;28110;47.080;9.476;2024-03-22T09:38:23;15.30;99.90
42479;DHT22;28110;47.080;9.476;2024-03-22T09:40:48;15.20;99.90
42479;DHT22;28110;47.080;9.476;2024-03-22T09:43:20;15.30;99.90
42479;DHT22;28110;47.080;9.476;2024-03-22T09:45:46;15.30;99.90
42479;DHT22;28110;47.080;9.476;2024-03-22T09:48:12;15.40;99.90
42479;DHT22;28110;47.080;9.476;2024-03-22T09:50:39;15.50;99.90
42479;DHT22;28110;47.080;9.476;2024-03-22T09:53:05;15.60;99.90
42479;DHT22;28110;47.080;9.476;2024-03-22T09:55:32;15.70;99.90
42479;DHT22;28110;47.080;9.476;2024-03-22T09:57:58;15.70;99.90
42479;DHT22;28110;47.080;9.476;2024-03-22T10:00:24;15.70;99.90
42479;DHT22;28110;47.080;9.476;2024-03-22T10:02:51;15.80;99.90
42479;DHT22;28110;47.080;9.476;2024-03-22T10:05:17;15.90;99.90
42479;DHT22;28110;47.080;9.476;2024-03-22T10:07:46;16.00;99.90
42479;DHT22;28110;47.080;9.476;2024-03-22T10:10:12;16.10;99.90
42479;DHT22;28110;47.080;9.476;2024-03-22T10:12:40;16.10;99.90
42479;DHT22;28110;47.080;9.476;2024-03-22T10:15:06;16.10;99.90
42479;DHT22;28110;47.080;9.476;2024-03-22T10:17:34;16.00;99.90
42479;DHT22;28110;47.080;9.476;2024-03-22T10:20:00;15.90;99.90
42479;DHT22;28110;47.080;9.476;2024-03-22T10:22:26;16.00;99.90
42479;DHT22;28110;47.080;9.476;2024-03-22T10:24:51;16.00;99.90
42479;DHT22;28110;47.080;9.476;2024-03-22T10:27:18;16.10;99.90
42479;DHT22;28110;47.080;9.476;2024-03-22T10:29:44;16.10;99.90
42479;DHT22;28110;47.080;9.476;2024-03-22T10:32:11;16.20;99.90
42479;DHT22;28110;47.080;9.476;2024-03-22T10:34:37;16.20;99.90
42479;DHT22;28110;47.080;9.476;2024-03-22T10:37:05;16.30;99.90
42479;DHT22;28110;47.080;9.476;2024-03-22T10:39:33;16.50;99.90
42479;DHT22;28110;47.080;9.476;2024-03-22T10:41:59;16.60;99.70
42479;DHT22;28110;47.080;9.476;2024-03-22T10:44:24;16.70;99.60
42479;DHT22;28110;47.080;9.476;2024-03-22T10:46:51;16.80;98.80
42479;DHT22;28110;47.080;9.476;2024-03-22T10:49:20;16.80;97.40
42479;DHT22;28110;47.080;9.476;2024-03-22T10:51:54;16.80;96.90
42479;DHT22;28110;47.080;9.476;2024-03-22T10:54:25;16.80;96.80
42479;DHT22;28110;47.080;9.476;2024-03-22T10:56:51;16.90;97.70
42479;DHT22;28110;47.080;9.476;2024-03-22T10:59:21;17.00;97.30
42479;DHT22;28110;47.080;9.476;2024-03-22T11:01:48;17.10;97.10
42479;DHT22;28110;47.080;9.476;2024-03-22T11:04:21;17.20;96.60
42479;DHT22;28110;47.080;9.476;2024-03-22T11:06:50;17.30;96.70
42479;DHT22;28110;47.080;9.476;2024-03-22T11:09:26;17.40;96.50
42479;DHT22;28110;47.080;9.476;2024-03-22T11:11:53;17.40;96.50
42479;DHT22;28110;47.080;9.476;2024-03-22T11:14:19;17.60;96.40
42479;DHT22;28110;47.080;9.476;2024-03-22T11:16:49;17.70;96.20
42479;DHT22;28110;47.080;9.476;2024-03-22T11:19:15;17.80;95.70
42479;DHT22;28110;47.080;9.476;2024-03-22T11:21:40;17.80;95.30
42479;DHT22;28110;47.080;9.476;2024-03-22T11:24:06;17.90;96.90
42479;DHT22;28110;47.080;9.476;2024-03-22T11:26:33;17.90;95.30
42479;DHT22;28110;47.080;9.476;2024-03-22T11:28:59;18.00;93.90
42479;DHT22;28110;47.080;9.476;2024-03-22T11:31:24;18.00;93.40
42479;DHT22;28110;47.080;9.476;2024-03-22T11:33:53;18.00;93.90
42479;DHT22;28110;47.080;9.476;2024-03-22T11:36:19;18.10;93.10
42479;DHT22;28110;47.080;9.476;2024-03-22T11:38:46;18.10;92.50
42479;DHT22;28110;47.080;9.476;2024-03-22T11:41:14;18.20;94.40
42479;DHT22;28110;47.080;9.476;2024-03-22T11:43:43;18.20;91.30
42479;DHT22;28110;47.080;9.476;2024-03-22T11:46:09;18.20;90.90
42479;DHT22;28110;47.080;9.476;2024-03-22T11:48:41;18.10;90.30
42479;DHT22;28110;47.080;9.476;2024-03-22T11:51:08;18.10;91.00
42479;DHT22;28110;47.080;9.476;2024-03-22T11:53:35;18.20;90.80
42479;DHT22;28110;47.080;9.476;2024-03-22T11:56:00;18.20;89.90
42479;DHT22;28110;47.080;9.476;2024-03-22T11:58:29;18.20;88.70
42479;DHT22;28110;47.080;9.476;2024-03-22T12:00:56;18.30;91.40
42479;DHT22;28110;47.080;9.476;2024-03-22T12:03:21;18.40;90.30
42479;DHT22;28110;47.080;9.476;2024-03-22T12:05:47;18.40;90.10
42479;DHT22;28110;47.080;9.476;2024-03-22T12:08:17;18.50;90.10
42479;DHT22;28110;47.080;9.476;2024-03-22T12:10:43;18.60;87.20
42479;DHT22;28110;47.080;9.476;2024-03-22T12:13:09;18.60;87.90
42479;DHT22;28110;47.080;9.476;2024-03-22T12:15:34;18.70;87.80
42479;DHT22;28110;47.080;9.476;2024-03-22T12:18:00;18.70;89.20
42479;DHT22;28110;47.080;9.476;2024-03-22T12:20:25;18.70;87.30
42479;DHT22;28110;47.080;9.476;2024-03-22T12:22:52;18.70;85.80
42479;DHT22;28110;47.080;9.476;2024-03-22T12:25:18;18.80;86.00
42479;DHT22;28110;47.080;9.476;2024-03-22T12:27:43;18.80;82.20
42479;DHT22;28110;47.080;9.476;2024-03-22T12:30:10;18.80;84.30
42479;DHT22;28110;47.080;9.476;2024-03-22T12:32:36;18.90;83.60
42479;DHT22;28110;47.080;9.476;2024-03-22T12:35:02;19.00;83.60
42479;DHT22;28110;47.080;9.476;2024-03-22T12:37:27;19.10;83.00
42479;DHT22;28110;47.080;9.476;2024-03-22T12:39:53;19.20;81.30
42479;DHT22;28110;47.080;9.476;2024-03-22T12:42:19;19.30;79.20
42479;DHT22;28110;47.080;9.476;2024-03-22T12:44:45;19.30;79.00
42479;DHT22;28110;47.080;9.476;2024-03-22T12:47:10;19.30;80.00
42479;DHT22;28110;47.080;9.476;2024-03-22T12:49:36;19.40;79.60
42479;DHT22;28110;47.080;9.476;2024-03-22T12:52:02;19.40;74.20
42479;DHT22;28110;47.080;9.476;2024-03-22T12:54:28;19.40;75.30
42479;DHT22;28110;47.080;9.476;2024-03-22T12:56:53;19.40;75.60
42479;DHT22;28110;47.080;9.476;2024-03-22T12:59:19;19.50;71.90
42479;DHT22;28110;47.080;9.476;2024-03-22T13:01:45;19.50;70.70
42479;DHT22;28110;47.080;9.476;2024-03-22T13:04:10;19.60;70.10
42479;DHT22;28110;47.080;9.476;2024-03-22T13:06:36;19.60;67.10
42479;DHT22;28110;47.080;9.476;2024-03-22T13:09:02;19.70;69.50
42479;DHT22;28110;47.080;9.476;2024-03-22T13:11:30;19.60;67.30
42479;DHT22;28110;47.080;9.476;2024-03-22T13:13:56;19.50;66.70
42479;DHT22;28110;47.080;9.476;2024-03-22T13:16:22;19.50;68.30
42479;DHT22;28110;47.080;9.476;2024-03-22T13:18:48;19.50;66.70
42479;DHT22;28110;47.080;9.476;2024-03-22T13:21:14;19.50;65.00
42479;DHT22;28110;47.080;9.476;2024-03-22T13:23:39;19.60;66.00
42479;DHT22;28110;47.080;9.476;2024-03-22T13:26:05;19.60;66.10
42479;DHT22;28110;47.080;9.476;2024-03-22T13:28:32;19.70;67.10
42479;DHT22;28110;47.080;9.476;2024-03-22T13:31:04;19.70;64.80
42479;DHT22;28110;47.080;9.476;2024-03-22T13:33:33;19.70;65.60
42479;DHT22;28110;47.080;9.476;2024-03-22T13:35:59;19.80;65.20
42479;DHT22;28110;47.080;9.476;2024-03-22T13:38:24;19.70;60.70
42479;DHT22;28110;47.080;9.476;2024-03-22T13:40:57;19.60;59.20
42479;DHT22;28110;47.080;9.476;2024-03-22T13:43:25;19.50;60.00
42479;DHT22;28110;47.080;9.476;2024-03-22T13:45:52;19.50;59.80
42479;DHT22;28110;47.080;9.476;2024-03-22T13:48:21;19.50;62.40
42479;DHT22;28110;47.080;9.476;2024-03-22T13:50:51;19.40;61.20
42479;DHT22;28110;47.080;9.476;2024-03-22T13:53:17;19.40;60.90
42479;DHT22;28110;47.080;9.476;2024-03-22T13:55:43;19.50;61.10
42479;DHT22;28110;47.080;9.476;2024-03-22T13:58:08;19.40;62.90
42479;DHT22;28110;47.080;9.476;2024-03-22T14:00:34;19.40;60.30
42479;DHT22;28110;47.080;9.476;2024-03-22T14:03:01;19.40;64.90
42479;DHT22;28110;47.080;9.476;2024-03-22T14:05:26;19.40;66.20
42479;DHT22;28110;47.080;9.476;2024-03-22T14:07:52;19.30;64.80
42479;DHT22;28110;47.080;9.476;2024-03-22T14:10:17;19.30;64.30
42479;DHT22;28110;47.080;9.476;2024-03-22T14:12:45;19.30;62.40
42479;DHT22;28110;47.080;9.476;2024-03-22T14:15:12;19.20;60.00
42479;DHT22;28110;47.080;9.476;2024-03-22T14:17:37;19.20;63.00
42479;DHT22;28110;47.080;9.476;2024-03-22T14:20:03;19.20;63.40
42479;DHT22;28110;47.080;9.476;2024-03-22T14:22:35;19.10;60.70
42479;DHT22;28110;47.080;9.476;2024-03-22T14:25:01;19.10;59.80
42479;DHT22;28110;47.080;9.476;2024-03-22T14:27:28;19.10;61.30
42479;DHT22;28110;47.080;9.476;2024-03-22T14:29:53;19.20;65.10
42479;DHT22;28110;47.080;9.476;2024-03-22T14:32:19;19.20;69.20
42479;DHT22;28110;47.080;9.476;2024-03-22T14:34:44;19.20;66.10
42479;DHT22;28110;47.080;9.476;2024-03-22T14:37:10;19.10;67.00
42479;DHT22;28110;47.080;9.476;2024-03-22T14:39:37;19.10;70.30
42479;DHT22;28110;47.080;9.476;2024-03-22T14:42:03;19.20;69.90
42479;DHT22;28110;47.080;9.476;2024-03-22T14:44:30;19.20;70.90
42479;DHT22;28110;47.080;9.476;2024-03-22T14:46:56;19.10;72.00
42479;DHT22;28110;47.080;9.476;2024-03-22T14:49:23;19.10;73.00
42479;DHT22;28110;47.080;9.476;2024-03-22T14:51:49;19.20;73.70
42479;DHT22;28110;47.080;9.476;2024-03-22T14:54:16;19.10;76.50
42479;DHT22;28110;47.080;9.476;2024-03-22T14:56:41;19.10;78.80
42479;DHT22;28110;47.080;9.476;2024-03-22T14:59:07;19.10;79.00
42479;DHT22;28110;47.080;9.476;2024-03-22T15:01:33;19.10;80.30
42479;DHT22;28110;47.080;9.476;2024-03-22T15:03:58;19.00;81.20
42479;DHT22;28110;47.080;9.476;2024-03-22T15:06:24;18.90;80.90
42479;DHT22;28110;47.080;9.476;2024-03-22T15:08:49;18.80;82.10
42479;DHT22;28110;47.080;9.476;2024-03-22T15:11:15;18.80;80.90
42479;DHT22;28110;47.080;9.476;2024-03-22T15:13:41;18.80;83.10
42479;DHT22;28110;47.080;9.476;2024-03-22T15:16:07;18.70;82.20
42479;DHT22;28110;47.080;9.476;2024-03-22T15:18:32;18.60;81.10
42479;DHT22;28110;47.080;9.476;2024-03-22T15:20:58;18.50;82.40
42479;DHT22;28110;47.080;9.476;2024-03-22T15:23:23;18.50;84.10
42479;DHT22;28110;47.080;9.476;2024-03-22T15:25:49;18.40;83.70
42479;DHT22;28110;47.080;9.476;2024-03-22T15:28:15;18.40;84.90
42479;DHT22;28110;47.080;9.476;2024-03-22T15:30:40;18.30;84.40